createdAt,value
2019-04-29T00:01:01.071Z,98316.25
2019-04-29T00:02:10.771Z,98307.19
2019-04-29T00:03:19.055Z,98308.77
2019-04-29T00:04:27.154Z,98303.66
2019-04-29T00:05:35.236Z,98310.44
2019-04-29T00:06:43.215Z,98302.33
2019-04-29T00:07:51.311Z,98308.97
2019-04-29T00:08:59.611Z,98306.80
2019-04-29T00:10:09.402Z,98308.52
2019-04-29T00:11:17.444Z,98313.34
2019-04-29T00:12:26.097Z,98308.37
2019-04-29T00:13:36.102Z,98314.39
2019-04-29T00:14:45.562Z,98311.44
2019-04-29T00:16:11.334Z,98307.25
2019-04-29T00:17:20.731Z,98307.38
2019-04-29T00:18:46.573Z,98314.58
2019-04-29T00:19:54.365Z,98310.09
2019-04-29T00:21:02.460Z,98307.44
2019-04-29T00:22:10.663Z,98308.77
2019-04-29T00:23:18.945Z,98303.30
2019-04-29T00:24:26.806Z,98304.63
2019-04-29T00:25:35.170Z,98306.34
2019-04-29T00:26:43.442Z,98300.05
2019-04-29T00:27:51.486Z,98300.73
2019-04-29T00:28:59.464Z,98295.56
2019-04-29T00:30:12.464Z,98295.08
2019-04-29T00:31:20.541Z,98304.59
2019-04-29T00:32:28.755Z,98295.97
2019-04-29T00:33:36.553Z,98294.30
2019-04-29T00:34:44.419Z,98295.02
2019-04-29T00:35:52.312Z,98294.53
2019-04-29T00:37:04.879Z,98296.95
2019-04-29T00:38:17.259Z,98293.31
2019-04-29T00:39:42.779Z,98297.80
2019-04-29T00:41:08.797Z,98298.52
2019-04-29T00:42:19.143Z,98292.70
2019-04-29T00:43:31.936Z,98292.47
2019-04-29T00:44:40.084Z,98290.54
2019-04-29T00:45:48.136Z,98292.36
2019-04-29T00:46:55.926Z,98294.88
2019-04-29T00:48:03.982Z,98297.19
2019-04-29T00:49:12.065Z,98291.73
2019-04-29T00:50:20.381Z,98294.73
2019-04-29T00:51:28.459Z,98293.05
2019-04-29T00:52:36.325Z,98288.72
2019-04-29T00:53:44.977Z,98283.75
2019-04-29T00:54:54.514Z,98289.56
2019-04-29T00:56:03.842Z,98287.25
2019-04-29T00:57:12.200Z,98286.75
2019-04-29T00:58:20.065Z,98285.42
2019-04-29T00:59:27.823Z,98289.41
2019-04-29T01:00:38.301Z,98281.58
2019-04-29T01:01:46.674Z,98278.77
2019-04-29T01:02:54.748Z,98280.95
2019-04-29T01:04:02.580Z,98276.95
2019-04-29T01:05:10.823Z,98280.45
2019-04-29T01:06:18.732Z,98284.79
2019-04-29T01:07:26.573Z,98282.48
2019-04-29T01:08:34.853Z,98281.29
2019-04-29T01:09:42.717Z,98282.12
2019-04-29T01:10:51.146Z,98276.81
2019-04-29T01:11:59.102Z,98280.20
2019-04-29T01:13:06.959Z,98278.87
2019-04-29T01:14:14.805Z,98278.72
2019-04-29T01:15:22.773Z,98279.91
2019-04-29T01:16:30.884Z,98278.44
2019-04-29T01:17:38.952Z,98284.94
2019-04-29T01:18:46.838Z,98282.51
2019-04-29T01:19:54.628Z,98282.36
2019-04-29T01:21:02.795Z,98283.41
2019-04-29T01:22:10.717Z,98285.80
2019-04-29T01:23:18.601Z,98282.36
2019-04-29T01:24:26.534Z,98282.59
2019-04-29T01:25:34.643Z,98288.95
2019-04-29T01:26:54.259Z,98284.32
2019-04-29T01:28:13.733Z,98286.37
2019-04-29T01:29:29.281Z,98286.08
2019-04-29T01:30:52.945Z,98283.27
2019-04-29T01:32:01.045Z,98284.95
2019-04-29T01:33:08.850Z,98283.63
2019-04-29T01:34:21.335Z,98282.29
2019-04-29T01:35:29.504Z,98290.27
2019-04-29T01:36:41.846Z,98280.95
2019-04-29T01:37:50.030Z,98283.27
2019-04-29T01:38:59.583Z,98285.94
2019-04-29T01:40:22.397Z,98290.07
2019-04-29T01:41:41.245Z,98283.91
2019-04-29T01:42:49.169Z,98288.20
2019-04-29T01:44:01.693Z,98284.61
2019-04-29T01:45:09.938Z,98286.64
2019-04-29T01:46:17.879Z,98285.94
2019-04-29T01:47:26.029Z,98286.09
2019-04-29T01:48:33.919Z,98281.75
2019-04-29T01:49:41.916Z,98285.59
2019-04-29T01:50:49.719Z,98280.42
2019-04-29T01:51:57.472Z,98280.53
2019-04-29T01:53:05.845Z,98280.19
2019-04-29T01:54:13.890Z,98275.59
2019-04-29T01:55:21.750Z,98279.20
2019-04-29T01:56:29.492Z,98277.77
2019-04-29T01:57:37.272Z,98279.20
2019-04-29T01:58:45.513Z,98279.20
2019-04-29T01:59:53.762Z,98276.55
2019-04-29T02:01:01.676Z,98280.19
2019-04-29T02:02:09.773Z,98278.17
2019-04-29T02:03:18.746Z,98276.84
2019-04-29T02:04:27.459Z,98280.83
2019-04-29T02:05:35.375Z,98272.84
2019-04-29T02:06:43.288Z,98277.33
2019-04-29T02:07:51.328Z,98275.86
2019-04-29T02:08:59.164Z,98272.70
2019-04-29T02:10:09.478Z,98268.71
2019-04-29T02:11:17.443Z,98269.06
2019-04-29T02:12:25.488Z,98266.89
2019-04-29T02:13:33.498Z,98271.86
2019-04-29T02:14:41.394Z,98268.86
2019-04-29T02:15:49.377Z,98269.70
2019-04-29T02:16:57.283Z,98267.53
2019-04-29T02:18:05.269Z,98267.88
2019-04-29T02:19:13.469Z,98266.05
2019-04-29T02:20:21.545Z,98265.56
2019-04-29T02:21:29.857Z,98267.88
2019-04-29T02:22:39.332Z,98258.07
2019-04-29T02:23:49.039Z,98259.75
2019-04-29T02:24:58.589Z,98260.23
2019-04-29T02:26:07.502Z,98259.75
2019-04-29T02:27:15.310Z,98262.41
2019-04-29T02:28:23.424Z,98258.91
2019-04-29T02:29:31.204Z,98256.73
2019-04-29T02:30:46.118Z,98263.39
2019-04-29T02:31:54.562Z,98263.25
2019-04-29T02:33:02.457Z,98261.91
2019-04-29T02:34:10.724Z,98261.42
2019-04-29T02:35:18.508Z,98262.30
2019-04-29T02:36:29.950Z,98262.90
2019-04-29T02:37:37.732Z,98255.41
2019-04-29T02:39:03.196Z,98260.23
2019-04-29T02:40:21.669Z,98258.42
2019-04-29T02:41:40.157Z,98253.59
2019-04-29T02:42:47.744Z,98260.59
2019-04-29T02:43:57.419Z,98264.58
2019-04-29T02:45:13.826Z,98262.06
2019-04-29T02:46:21.666Z,98260.73
2019-04-29T02:47:29.583Z,98263.88
2019-04-29T02:48:37.532Z,98255.91
2019-04-29T02:49:45.499Z,98254.38
2019-04-29T02:50:55.950Z,98259.05
2019-04-29T02:52:03.869Z,98262.36
2019-04-29T02:53:11.813Z,98258.51
2019-04-29T02:54:20.139Z,98258.02
2019-04-29T02:55:29.593Z,98254.52
2019-04-29T02:56:37.896Z,98252.20
2019-04-29T02:58:02.334Z,98247.72
2019-04-29T02:59:11.977Z,98246.89
2019-04-29T03:00:37.972Z,98242.25
2019-04-29T03:01:54.328Z,98245.61
2019-04-29T03:03:03.889Z,98246.45
2019-04-29T03:04:13.421Z,98244.91
2019-04-29T03:05:25.858Z,98247.23
2019-04-29T03:06:33.869Z,98241.91
2019-04-29T03:07:42.446Z,98241.77
2019-04-29T03:08:50.703Z,98235.41
2019-04-29T03:09:58.617Z,98234.57
2019-04-29T03:11:06.755Z,98237.23
2019-04-29T03:12:14.723Z,98238.19
2019-04-29T03:13:22.551Z,98234.69
2019-04-29T03:14:32.155Z,98235.90
2019-04-29T03:15:43.143Z,98233.35
2019-04-29T03:16:51.024Z,98231.91
2019-04-29T03:17:59.583Z,98236.73
2019-04-29T03:19:09.354Z,98235.52
2019-04-29T03:20:18.923Z,98239.16
2019-04-29T03:21:47.681Z,98235.52
2019-04-29T03:23:09.907Z,98240.84
2019-04-29T03:24:17.960Z,98233.01
2019-04-29T03:25:25.995Z,98235.67
2019-04-29T03:26:34.228Z,98239.80
2019-04-29T03:27:42.241Z,98232.31
2019-04-29T03:28:50.329Z,98240.50
2019-04-29T03:29:58.433Z,98236.66
2019-04-29T03:31:06.632Z,98234.14
2019-04-29T03:32:14.519Z,98232.81
2019-04-29T03:33:22.610Z,98231.48
2019-04-29T03:34:30.727Z,98230.84
2019-04-29T03:35:38.745Z,98230.34
2019-04-29T03:36:46.602Z,98226.66
2019-04-29T03:37:54.669Z,98227.00
2019-04-29T03:39:03.377Z,98230.64
2019-04-29T03:40:11.580Z,98232.58
2019-04-29T03:41:19.896Z,98232.47
2019-04-29T03:42:28.963Z,98234.78
2019-04-29T03:43:36.875Z,98225.47
2019-04-29T03:44:44.765Z,98235.47
2019-04-29T03:45:52.780Z,98229.31
2019-04-29T03:47:01.143Z,98228.59
2019-04-29T03:48:09.195Z,98229.92
2019-04-29T03:49:17.104Z,98235.13
2019-04-29T03:50:25.057Z,98225.81
2019-04-29T03:51:33.177Z,98230.30
2019-04-29T03:52:40.930Z,98228.47
2019-04-29T03:53:48.724Z,98231.14
2019-04-29T03:54:56.927Z,98227.14
2019-04-29T03:56:04.972Z,98236.45
2019-04-29T03:57:14.558Z,98232.95
2019-04-29T03:58:22.459Z,98228.13
2019-04-29T03:59:30.173Z,98234.48
2019-04-29T04:00:38.164Z,98234.48
2019-04-29T04:01:47.755Z,98233.50
2019-04-29T04:03:00.203Z,98231.04
2019-04-29T04:04:09.775Z,98231.68
2019-04-29T04:05:29.676Z,98235.52
2019-04-29T04:06:39.029Z,98231.91
2019-04-29T04:08:06.803Z,98234.08
2019-04-29T04:09:28.161Z,98237.58
2019-04-29T04:10:36.134Z,98240.84
2019-04-29T04:11:44.728Z,98239.52
2019-04-29T04:12:52.662Z,98239.89
2019-04-29T04:14:00.726Z,98248.70
2019-04-29T04:15:09.063Z,98244.72
2019-04-29T04:16:18.593Z,98246.54
2019-04-29T04:17:26.241Z,98246.73
2019-04-29T04:18:35.985Z,98242.41
2019-04-29T04:19:43.928Z,98241.42
2019-04-29T04:20:51.947Z,98237.43
2019-04-29T04:22:00.216Z,98241.27
2019-04-29T04:23:08.200Z,98236.78
2019-04-29T04:24:15.986Z,98237.28
2019-04-29T04:25:23.744Z,98236.78
2019-04-29T04:26:31.505Z,98234.97
2019-04-29T04:27:39.486Z,98231.81
2019-04-29T04:28:47.403Z,98239.67
2019-04-29T04:29:56.226Z,98239.67
2019-04-29T04:31:06.757Z,98230.83
2019-04-29T04:32:14.161Z,98235.55
2019-04-29T04:33:22.169Z,98239.04
2019-04-29T04:34:30.390Z,98232.39
2019-04-29T04:35:38.803Z,98238.05
2019-04-29T04:36:46.930Z,98234.06
2019-04-29T04:37:54.970Z,98244.56
2019-04-29T04:39:04.535Z,98241.90
2019-04-29T04:40:15.018Z,98239.58
2019-04-29T04:41:23.072Z,98245.25
2019-04-29T04:42:30.929Z,98242.13
2019-04-29T04:43:38.852Z,98241.83
2019-04-29T04:44:49.881Z,98242.47
2019-04-29T04:45:57.994Z,98243.66
2019-04-29T04:47:06.199Z,98244.84
2019-04-29T04:48:14.434Z,98244.69
2019-04-29T04:49:22.206Z,98238.76
2019-04-29T04:50:30.409Z,98247.58
2019-04-29T04:51:38.240Z,98242.26
2019-04-29T04:52:46.273Z,98246.94
2019-04-29T04:53:54.469Z,98246.45
2019-04-29T04:55:02.554Z,98246.10
2019-04-29T04:56:10.580Z,98246.10
2019-04-29T04:57:18.763Z,98247.58
2019-04-29T04:58:27.163Z,98252.41
2019-04-29T04:59:35.438Z,98240.09
2019-04-29T05:00:43.513Z,98254.73
2019-04-29T05:01:51.331Z,98245.03
2019-04-29T05:02:59.423Z,98249.90
2019-04-29T05:04:07.432Z,98246.86
2019-04-29T05:05:15.674Z,98249.90
2019-04-29T05:06:23.637Z,98250.84
2019-04-29T05:07:31.408Z,98246.86
2019-04-29T05:08:39.428Z,98243.85
2019-04-29T05:09:47.383Z,98246.66
2019-04-29T05:10:55.638Z,98245.48
2019-04-29T05:12:03.744Z,98251.78
2019-04-29T05:13:11.696Z,98246.58
2019-04-29T05:14:19.654Z,98245.13
2019-04-29T05:15:27.609Z,98247.65
2019-04-29T05:16:35.630Z,98246.66
2019-04-29T05:17:43.704Z,98244.49
2019-04-29T05:18:52.111Z,98251.14
2019-04-29T05:20:00.313Z,98245.33
2019-04-29T05:21:08.418Z,98248.83
2019-04-29T05:22:16.858Z,98247.65
2019-04-29T05:23:24.766Z,98244.79
2019-04-29T05:24:32.870Z,98248.48
2019-04-29T05:25:41.002Z,98244.98
2019-04-29T05:26:49.276Z,98250.80
2019-04-29T05:27:57.399Z,98248.14
2019-04-29T05:29:05.640Z,98248.98
2019-04-29T05:30:13.957Z,98239.04
2019-04-29T05:31:21.889Z,98251.78
2019-04-29T05:32:29.855Z,98250.45
2019-04-29T05:33:37.977Z,98255.97
2019-04-29T05:34:48.262Z,98256.47
2019-04-29T05:36:06.773Z,98256.13
2019-04-29T05:37:31.764Z,98257.80
2019-04-29T05:38:41.904Z,98253.80
2019-04-29T05:39:50.164Z,98258.44
2019-04-29T05:40:58.358Z,98262.42
2019-04-29T05:42:07.634Z,98262.42
2019-04-29T05:43:18.140Z,98260.75
2019-04-29T05:44:33.974Z,98261.15
2019-04-29T05:46:00.007Z,98261.00
2019-04-29T05:47:17.828Z,98261.49
2019-04-29T05:48:27.679Z,98263.31
2019-04-29T05:49:37.407Z,98263.20
2019-04-29T05:50:52.050Z,98267.54
2019-04-29T05:52:03.813Z,98259.41
2019-04-29T05:53:19.385Z,98262.56
2019-04-29T05:54:31.773Z,98265.56
2019-04-29T05:55:38.694Z,98265.56
2019-04-29T05:56:46.882Z,98263.25
2019-04-29T05:58:02.923Z,98268.08
2019-04-29T05:59:08.477Z,98269.61
2019-04-29T06:00:22.883Z,98269.27
2019-04-29T06:01:29.848Z,98271.44
2019-04-29T06:02:38.874Z,98268.28
2019-04-29T06:03:47.037Z,98263.45
2019-04-29T06:04:55.141Z,98266.83
2019-04-29T06:06:03.351Z,98267.87
2019-04-29T06:07:11.857Z,98263.53
2019-04-29T06:08:20.042Z,98266.19
2019-04-29T06:09:28.357Z,98266.39
2019-04-29T06:10:36.923Z,98268.44
2019-04-29T06:11:45.139Z,98267.61
2019-04-29T06:12:53.168Z,98260.45
2019-04-29T06:14:01.514Z,98265.14
2019-04-29T06:15:10.406Z,98267.16
2019-04-29T06:16:20.864Z,98263.31
2019-04-29T06:17:28.407Z,98264.30
2019-04-29T06:18:36.357Z,98271.80
2019-04-29T06:19:44.462Z,98264.98
2019-04-29T06:20:52.688Z,98268.64
2019-04-29T06:22:03.787Z,98263.12
2019-04-29T06:23:10.532Z,98265.14
2019-04-29T06:24:18.371Z,98275.44
2019-04-29T06:25:26.314Z,98269.13
2019-04-29T06:26:34.252Z,98268.48
2019-04-29T06:27:42.189Z,98269.13
2019-04-29T06:28:51.607Z,98265.83
2019-04-29T06:30:03.071Z,98274.04
2019-04-29T06:31:09.741Z,98272.22
2019-04-29T06:32:20.173Z,98261.19
2019-04-29T06:33:29.060Z,98273.59
2019-04-29T06:34:40.033Z,98275.16
2019-04-29T06:35:48.956Z,98278.01
2019-04-29T06:36:57.088Z,98279.69
2019-04-29T06:38:05.321Z,98275.00
2019-04-29T06:39:13.751Z,98275.84
2019-04-29T06:40:22.513Z,98275.20
2019-04-29T06:41:30.830Z,98274.21
2019-04-29T06:42:38.810Z,98276.23
2019-04-29T06:43:47.017Z,98275.55
2019-04-29T06:44:55.017Z,98270.71
2019-04-29T06:46:03.121Z,98276.23
2019-04-29T06:47:11.057Z,98271.63
2019-04-29T06:48:19.003Z,98272.66
2019-04-29T06:49:26.738Z,98280.00
2019-04-29T06:50:35.067Z,98273.23
2019-04-29T06:51:43.332Z,98274.26
2019-04-29T06:52:51.478Z,98272.09
2019-04-29T06:53:59.366Z,98270.76
2019-04-29T06:55:07.758Z,98278.94
2019-04-29T06:56:15.811Z,98277.61
2019-04-29T06:57:23.657Z,98276.50
2019-04-29T06:58:32.472Z,98274.19
2019-04-29T06:59:43.075Z,98278.37
2019-04-29T07:00:55.731Z,98276.42
2019-04-29T07:02:01.459Z,98278.03
2019-04-29T07:03:09.591Z,98277.87
2019-04-29T07:04:17.857Z,98274.38
2019-04-29T07:05:26.176Z,98277.69
2019-04-29T07:06:34.289Z,98275.02
2019-04-29T07:07:42.389Z,98273.34
2019-04-29T07:08:50.591Z,98280.69
2019-04-29T07:09:58.784Z,98273.34
2019-04-29T07:11:06.819Z,98278.52
2019-04-29T07:12:15.070Z,98272.70
2019-04-29T07:13:24.586Z,98275.70
2019-04-29T07:14:38.152Z,98272.77
2019-04-29T07:15:43.568Z,98273.95
2019-04-29T07:16:52.661Z,98271.64
2019-04-29T07:18:00.565Z,98270.87
2019-04-29T07:19:08.837Z,98271.55
2019-04-29T07:20:16.855Z,98275.25
2019-04-29T07:21:24.844Z,98268.31
2019-04-29T07:22:32.544Z,98274.33
2019-04-29T07:23:40.832Z,98276.16
2019-04-29T07:24:48.823Z,98276.34
2019-04-29T07:25:56.828Z,98272.35
2019-04-29T07:27:05.432Z,98276.69
2019-04-29T07:28:13.771Z,98266.42
2019-04-29T07:29:29.722Z,98277.98
2019-04-29T07:30:33.214Z,98273.98
2019-04-29T07:31:41.408Z,98266.00
2019-04-29T07:32:49.365Z,98262.15
2019-04-29T07:33:57.929Z,98267.94
2019-04-29T07:35:09.904Z,98270.98
2019-04-29T07:36:18.707Z,98275.66
2019-04-29T07:37:29.693Z,98271.33
2019-04-29T07:38:41.545Z,98274.83
2019-04-29T07:39:47.453Z,98269.00
2019-04-29T07:40:55.651Z,98279.31
2019-04-29T07:42:03.594Z,98274.83
2019-04-29T07:43:11.724Z,98279.16
2019-04-29T07:44:20.006Z,98277.53
2019-04-29T07:45:46.014Z,98281.90
2019-04-29T07:46:59.149Z,98269.30
2019-04-29T07:48:06.309Z,98275.46
2019-04-29T07:49:17.162Z,98277.97
2019-04-29T07:50:26.752Z,98275.99
2019-04-29T07:51:39.400Z,98272.71
2019-04-29T07:52:45.588Z,98273.89
2019-04-29T07:53:54.421Z,98274.08
2019-04-29T07:55:02.268Z,98269.93
2019-04-29T07:56:10.324Z,98272.25
2019-04-29T07:57:18.961Z,98272.47
2019-04-29T07:58:27.391Z,98275.83
2019-04-29T07:59:38.511Z,98273.50
2019-04-29T08:00:48.805Z,98273.01
2019-04-29T08:01:59.908Z,98284.35
2019-04-29T08:03:08.402Z,98276.84
2019-04-29T08:04:16.334Z,98274.53
2019-04-29T08:05:24.181Z,98277.69
2019-04-29T08:06:33.703Z,98275.02
2019-04-29T08:07:42.909Z,98273.41
2019-04-29T08:08:55.064Z,98278.25
2019-04-29T08:10:03.566Z,98276.42
2019-04-29T08:11:12.708Z,98271.59
2019-04-29T08:12:23.344Z,98278.41
2019-04-29T08:13:33.412Z,98275.86
2019-04-29T08:14:41.975Z,98274.41
2019-04-29T08:15:49.748Z,98270.41
2019-04-29T08:16:57.923Z,98271.02
2019-04-29T08:18:07.013Z,98271.25
2019-04-29T08:19:15.643Z,98272.92
2019-04-29T08:20:24.307Z,98276.92
2019-04-29T08:21:32.329Z,98281.75
2019-04-29T08:22:40.220Z,98277.75
2019-04-29T08:23:50.508Z,98281.41
2019-04-29T08:24:58.599Z,98280.61
2019-04-29T08:26:06.592Z,98280.61
2019-04-29T08:27:14.709Z,98277.82
2019-04-29T08:28:23.448Z,98274.16
2019-04-29T08:29:35.845Z,98276.48
2019-04-29T08:30:41.932Z,98276.33
2019-04-29T08:31:51.890Z,98278.50
2019-04-29T08:33:00.685Z,98275.49
2019-04-29T08:34:08.822Z,98280.67
2019-04-29T08:35:16.813Z,98273.17
2019-04-29T08:36:25.287Z,98280.52
2019-04-29T08:37:33.383Z,98278.41
2019-04-29T08:38:41.583Z,98280.58
2019-04-29T08:40:08.280Z,98278.75
2019-04-29T08:40:59.558Z,98276.28
2019-04-29T08:42:09.418Z,98278.30
2019-04-29T08:43:20.687Z,98282.02
2019-04-29T08:44:29.656Z,98277.36
2019-04-29T08:45:48.609Z,98278.42
2019-04-29T08:47:01.534Z,98283.09
2019-04-29T08:48:09.652Z,98283.28
2019-04-29T08:49:17.686Z,98287.47
2019-04-29T08:50:25.694Z,98281.80
2019-04-29T08:51:34.014Z,98284.80
2019-04-29T08:52:41.932Z,98280.68
2019-04-29T08:53:50.306Z,98285.86
2019-04-29T08:54:58.152Z,98288.86
2019-04-29T08:56:10.113Z,98283.03
2019-04-29T08:57:16.054Z,98283.59
2019-04-29T08:58:24.230Z,98283.28
2019-04-29T08:59:32.239Z,98285.11
2019-04-29T09:00:40.489Z,98283.95
2019-04-29T09:01:48.467Z,98285.16
2019-04-29T09:02:56.722Z,98286.19
2019-04-29T09:04:05.014Z,98284.70
2019-04-29T09:05:14.451Z,98280.53
2019-04-29T09:06:22.315Z,98281.38
2019-04-29T09:07:30.529Z,98277.59
2019-04-29T09:08:53.517Z,98277.93
2019-04-29T09:09:48.577Z,98277.44
2019-04-29T09:10:57.074Z,98277.44
2019-04-29T09:12:05.168Z,98272.75
2019-04-29T09:13:13.106Z,98273.59
2019-04-29T09:14:21.272Z,98280.09
2019-04-29T09:15:29.202Z,98269.92
2019-04-29T09:16:37.367Z,98274.11
2019-04-29T09:17:45.523Z,98272.48
2019-04-29T09:18:53.765Z,98271.84
2019-04-29T09:20:01.821Z,98274.56
2019-04-29T09:21:09.853Z,98278.06
2019-04-29T09:22:19.509Z,98270.89
2019-04-29T09:23:35.158Z,98272.57
2019-04-29T09:24:48.136Z,98281.52
2019-04-29T09:26:03.304Z,98276.52
2019-04-29T09:27:16.172Z,98278.84
2019-04-29T09:28:28.141Z,98278.17
2019-04-29T09:29:34.744Z,98280.50
2019-04-29T09:30:43.022Z,98284.00
2019-04-29T09:31:51.029Z,98286.33
2019-04-29T09:32:59.213Z,98279.94
2019-04-29T09:34:07.158Z,98282.45
2019-04-29T09:35:15.809Z,98280.99
2019-04-29T09:36:23.776Z,98284.28
2019-04-29T09:37:31.685Z,98279.45
2019-04-29T09:38:39.971Z,98279.66
2019-04-29T09:39:48.171Z,98280.16
2019-04-29T09:41:01.621Z,98276.44
2019-04-29T09:42:13.120Z,98274.45
2019-04-29T09:43:32.927Z,98271.09
2019-04-29T09:44:44.622Z,98271.59
2019-04-29T09:45:58.628Z,98276.75
2019-04-29T09:47:08.464Z,98274.58
2019-04-29T09:48:15.604Z,98272.04
2019-04-29T09:49:23.972Z,98275.36
2019-04-29T09:50:34.305Z,98275.70
2019-04-29T09:51:41.863Z,98273.69
2019-04-29T09:52:50.012Z,98276.67
2019-04-29T09:53:58.009Z,98269.29
2019-04-29T09:55:06.917Z,98272.42
2019-04-29T09:56:14.671Z,98273.60
2019-04-29T09:57:23.046Z,98270.94
2019-04-29T09:58:31.108Z,98266.59
2019-04-29T09:59:47.292Z,98270.59
2019-04-29T10:00:59.616Z,98266.59
2019-04-29T10:02:26.157Z,98268.61
2019-04-29T10:03:33.702Z,98269.29
2019-04-29T10:04:56.512Z,98268.79
2019-04-29T10:06:14.193Z,98260.66
2019-04-29T10:07:22.451Z,98262.34
2019-04-29T10:08:30.442Z,98259.45
2019-04-29T10:09:38.303Z,98263.95
2019-04-29T10:10:46.677Z,98270.28
2019-04-29T10:11:54.621Z,98264.27
2019-04-29T10:13:02.596Z,98269.27
2019-04-29T10:14:10.846Z,98269.94
2019-04-29T10:15:20.818Z,98263.92
2019-04-29T10:16:35.971Z,98267.43
2019-04-29T10:17:45.944Z,98265.41
2019-04-29T10:19:08.146Z,98263.53
2019-04-29T10:20:17.862Z,98269.20
2019-04-29T10:21:26.144Z,98266.84
2019-04-29T10:22:35.072Z,98264.36
2019-04-29T10:23:43.369Z,98264.20
2019-04-29T10:24:51.691Z,98263.37
2019-04-29T10:26:00.013Z,98262.69
2019-04-29T10:27:08.481Z,98264.36
2019-04-29T10:28:16.577Z,98270.14
2019-04-29T10:29:26.158Z,98266.13
2019-04-29T10:30:34.205Z,98270.51
2019-04-29T10:31:42.353Z,98268.34
2019-04-29T10:32:50.959Z,98272.34
2019-04-29T10:33:59.157Z,98278.84
2019-04-29T10:35:10.639Z,98276.52
2019-04-29T10:36:20.499Z,98276.18
2019-04-29T10:37:31.320Z,98272.80
2019-04-29T10:38:40.493Z,98269.30
2019-04-29T10:40:10.532Z,98272.13
2019-04-29T10:41:19.412Z,98276.80
2019-04-29T10:42:38.514Z,98277.45
2019-04-29T10:43:53.626Z,98281.61
2019-04-29T10:45:00.721Z,98282.11
2019-04-29T10:46:20.827Z,98280.09
2019-04-29T10:47:40.902Z,98279.84
2019-04-29T10:48:53.727Z,98283.34
2019-04-29T10:50:03.641Z,98283.63
2019-04-29T10:51:13.612Z,98286.16
2019-04-29T10:52:21.805Z,98284.84
2019-04-29T10:53:29.864Z,98284.34
2019-04-29T10:54:38.000Z,98288.67
2019-04-29T10:55:46.272Z,98281.86
2019-04-29T10:56:54.320Z,98287.88
2019-04-29T10:58:02.522Z,98285.70
2019-04-29T10:59:11.158Z,98283.19
2019-04-29T11:00:25.237Z,98289.36
2019-04-29T11:02:18.379Z,98292.03
2019-04-29T11:03:26.397Z,98291.69
2019-04-29T11:04:36.084Z,98293.17
2019-04-29T11:05:59.869Z,98292.34
2019-04-29T11:06:56.812Z,98295.99
2019-04-29T11:08:07.376Z,98298.44
2019-04-29T11:09:17.051Z,98295.93
2019-04-29T11:10:27.252Z,98295.03
2019-04-29T11:11:36.002Z,98295.67
2019-04-29T11:12:43.866Z,98290.69
2019-04-29T11:13:52.547Z,98293.51
2019-04-29T11:15:01.668Z,98300.17
2019-04-29T11:16:11.156Z,98300.82
2019-04-29T11:17:23.181Z,98298.16
2019-04-29T11:18:31.212Z,98300.10
2019-04-29T11:19:41.369Z,98295.42
2019-04-29T11:20:53.713Z,98294.43
2019-04-29T11:22:02.149Z,98290.92
2019-04-29T11:23:18.054Z,98299.23
2019-04-29T11:24:42.993Z,98292.22
2019-04-29T11:25:54.494Z,98292.50
2019-04-29T11:27:12.087Z,98296.50
2019-04-29T11:28:17.747Z,98304.64
2019-04-29T11:29:27.185Z,98292.95
2019-04-29T11:30:39.521Z,98291.97
2019-04-29T11:31:49.131Z,98303.13
2019-04-29T11:33:14.952Z,98298.97
2019-04-29T11:34:27.472Z,98298.63
2019-04-29T11:35:36.965Z,98306.78
2019-04-29T11:36:44.919Z,98297.91
2019-04-29T11:37:55.011Z,98303.62
2019-04-29T11:39:02.643Z,98303.24
2019-04-29T11:40:11.381Z,98301.72
2019-04-29T11:41:19.951Z,98290.41
2019-04-29T11:42:31.832Z,98299.96
2019-04-29T11:43:39.137Z,98298.29
2019-04-29T11:44:47.164Z,98301.23
2019-04-29T11:45:56.802Z,98301.57
2019-04-29T11:47:04.789Z,98298.86
2019-04-29T11:48:13.636Z,98301.23
2019-04-29T11:49:23.136Z,98305.22
2019-04-29T11:50:45.232Z,98299.63
2019-04-29T11:52:08.409Z,98303.47
2019-04-29T11:53:02.620Z,98299.16
2019-04-29T11:54:12.387Z,98305.33
2019-04-29T11:55:20.719Z,98300.98
2019-04-29T11:56:28.916Z,98304.34
2019-04-29T11:57:41.107Z,98310.31
2019-04-29T11:59:06.221Z,98295.16
2019-04-29T12:00:18.374Z,98299.31
2019-04-29T12:01:38.711Z,98308.49
2019-04-29T12:02:54.376Z,98298.48
2019-04-29T12:04:10.754Z,98302.82
2019-04-29T12:05:26.386Z,98300.16
2019-04-29T12:06:34.490Z,98305.64
2019-04-29T12:07:42.583Z,98307.62
2019-04-29T12:08:53.379Z,98299.25
2019-04-29T12:10:02.234Z,98307.96
2019-04-29T12:11:10.554Z,98307.47
2019-04-29T12:12:19.001Z,98309.63
2019-04-29T12:13:45.372Z,98308.80
2019-04-29T12:14:53.709Z,98307.66
2019-04-29T12:16:12.203Z,98310.63
2019-04-29T12:17:39.981Z,98309.29
2019-04-29T12:18:52.355Z,98306.97
2019-04-29T12:20:01.806Z,98304.53
2019-04-29T12:21:13.888Z,98296.39
2019-04-29T12:22:30.106Z,98300.20
2019-04-29T12:23:31.732Z,98298.71
2019-04-29T12:24:39.760Z,98296.55
2019-04-29T12:25:47.992Z,98301.72
2019-04-29T12:26:56.340Z,98296.73
2019-04-29T12:28:18.760Z,98300.58
2019-04-29T12:29:18.394Z,98295.63
2019-04-29T12:30:29.803Z,98299.63
2019-04-29T12:31:49.270Z,98299.73
2019-04-29T12:33:01.382Z,98298.22
2019-04-29T12:34:11.948Z,98299.89
2019-04-29T12:35:30.148Z,98294.91
2019-04-29T12:36:55.029Z,98299.05
2019-04-29T12:38:00.673Z,98298.38
2019-04-29T12:39:10.472Z,98297.04
2019-04-29T12:40:36.242Z,98292.39
2019-04-29T12:41:49.365Z,98283.06
2019-04-29T12:43:17.392Z,98295.55
2019-04-29T12:44:35.026Z,98300.88
2019-04-29T12:45:36.764Z,98299.36
2019-04-29T12:46:46.419Z,98295.86
2019-04-29T12:47:54.568Z,98298.03
2019-04-29T12:49:03.514Z,98296.47
2019-04-29T12:50:12.267Z,98292.81
2019-04-29T12:51:20.115Z,98296.20
2019-04-29T12:52:28.773Z,98292.70
2019-04-29T12:53:36.870Z,98297.88
2019-04-29T12:54:46.127Z,98286.23
2019-04-29T12:55:56.201Z,98282.91
2019-04-29T12:57:04.438Z,98299.63
2019-04-29T12:58:12.440Z,98285.46
2019-04-29T12:59:20.763Z,98275.48
2019-04-29T13:00:30.907Z,98282.48
2019-04-29T13:01:59.572Z,98281.84
2019-04-29T13:03:08.515Z,98277.00
2019-04-29T13:04:30.109Z,98280.35
2019-04-29T13:05:57.583Z,98274.06
2019-04-29T13:06:58.707Z,98277.34
2019-04-29T13:08:08.919Z,98273.50
2019-04-29T13:09:34.975Z,98274.98
2019-04-29T13:10:50.482Z,98263.83
2019-04-29T13:12:17.725Z,98270.68
2019-04-29T13:13:09.100Z,98273.01
2019-04-29T13:14:17.282Z,98265.84
2019-04-29T13:15:33.317Z,98269.01
2019-04-29T13:16:45.154Z,98256.98
2019-04-29T13:18:03.550Z,98257.33
2019-04-29T13:19:25.021Z,98260.98
2019-04-29T13:20:33.723Z,98259.98
2019-04-29T13:21:41.813Z,98257.94
2019-04-29T13:22:49.929Z,98256.91
2019-04-29T13:24:12.521Z,98259.51
2019-04-29T13:25:09.376Z,98261.34
2019-04-29T13:26:27.790Z,98263.32
2019-04-29T13:27:27.195Z,98262.17
2019-04-29T13:28:51.800Z,98267.81
2019-04-29T13:29:44.871Z,98263.16
2019-04-29T13:30:56.860Z,98267.04
2019-04-29T13:32:02.874Z,98268.41
2019-04-29T13:33:16.642Z,98262.24
2019-04-29T13:34:24.579Z,98260.91
2019-04-29T13:35:32.055Z,98270.80
2019-04-29T13:36:40.028Z,98270.92
2019-04-29T13:37:47.865Z,98270.23
2019-04-29T13:38:56.277Z,98269.59
2019-04-29T13:40:05.973Z,98270.80
2019-04-29T13:41:14.371Z,98270.80
2019-04-29T13:42:25.313Z,98272.25
2019-04-29T13:43:35.549Z,98272.75